<?xml version="1.0" encoding="UTF-8"?>
<gpx xmlns="http://www.topografix.com/GPX/1/1" xmlns:xsi="http://www.w3.org/2001/XMLSchema-instance" version="1.1" xsi:schemaLocation="http://www.topografix.com/GPX/1/1 http://www.topografix.com/GPX/1/1/gpx.xsd">
  <metadata>
    <name>Pendle Triathlon - Aquabike Supersprint</name>
  </metadata>
  <trk>
    <name>Pendle Triathlon - Aquabike Supersprint</name>
    <trkseg>
      <trkpt lat="53.912428" lon="-2.18155">
        <ele>175.488938</ele>
        <time>2025-06-01T12:34:00.000Z</time>
      </trkpt>
      <trkpt lat="53.912317" lon="-2.18139">
        <ele>175.488935</ele>
        <time>2025-06-01T12:34:02.000Z</time>
      </trkpt>
      <trkpt lat="53.911787" lon="-2.180807">
        <ele>175.488933</ele>
        <time>2025-06-01T12:34:09.000Z</time>
      </trkpt>
      <trkpt lat="53.911731" lon="-2.180743">
        <ele>175.488927</ele>
        <time>2025-06-01T12:34:10.000Z</time>
      </trkpt>
      <trkpt lat="53.911715" lon="-2.180713">
        <ele>175.488924</ele>
        <time>2025-06-01T12:34:10.000Z</time>
      </trkpt>
      <trkpt lat="53.911533" lon="-2.180503">
        <ele>175.189573</ele>
        <time>2025-06-01T12:34:12.000Z</time>
      </trkpt>
      <trkpt lat="53.910918" lon="-2.179788">
        <ele>174.08733</ele>
        <time>2025-06-01T12:34:20.000Z</time>
      </trkpt>
      <trkpt lat="53.910811" lon="-2.17968">
        <ele>173.897024</ele>
        <time>2025-06-01T12:34:21.000Z</time>
      </trkpt>
      <trkpt lat="53.910451" lon="-2.179291">
        <ele>173.275115</ele>
        <time>2025-06-01T12:34:26.000Z</time>
      </trkpt>
      <trkpt lat="53.909835" lon="-2.178595">
        <ele>170.514743</ele>
        <time>2025-06-01T12:34:34.000Z</time>
      </trkpt>
      <trkpt lat="53.909372" lon="-2.178094">
        <ele>167.599154</ele>
        <time>2025-06-01T12:34:40.000Z</time>
      </trkpt>
      <trkpt lat="53.908969" lon="-2.177622">
        <ele>164.93788</ele>
        <time>2025-06-01T12:34:45.000Z</time>
      </trkpt>
      <trkpt lat="53.908197" lon="-2.176628">
        <ele>159.292625</ele>
        <time>2025-06-01T12:34:56.000Z</time>
      </trkpt>
      <trkpt lat="53.907568" lon="-2.175577">
        <ele>153.858856</ele>
        <time>2025-06-01T12:35:06.000Z</time>
      </trkpt>
      <trkpt lat="53.907541" lon="-2.175532">
        <ele>153.652447</ele>
        <time>2025-06-01T12:35:06.000Z</time>
      </trkpt>
      <trkpt lat="53.907189" lon="-2.174961">
        <ele>151.518301</ele>
        <time>2025-06-01T12:35:11.000Z</time>
      </trkpt>
      <trkpt lat="53.906513" lon="-2.173833">
        <ele>148.877905</ele>
        <time>2025-06-01T12:35:22.000Z</time>
      </trkpt>
      <trkpt lat="53.90611" lon="-2.173168">
        <ele>147.293817</ele>
        <time>2025-06-01T12:35:28.000Z</time>
      </trkpt>
      <trkpt lat="53.90514" lon="-2.171399">
        <ele>145.362068</ele>
        <time>2025-06-01T12:35:44.000Z</time>
      </trkpt>
      <trkpt lat="53.904894" lon="-2.170783">
        <ele>144.823149</ele>
        <time>2025-06-01T12:35:49.000Z</time>
      </trkpt>
      <trkpt lat="53.904807" lon="-2.170554">
        <ele>144.802773</ele>
        <time>2025-06-01T12:35:51.000Z</time>
      </trkpt>
      <trkpt lat="53.904747" lon="-2.170326">
        <ele>144.783151</ele>
        <time>2025-06-01T12:35:53.000Z</time>
      </trkpt>
      <trkpt lat="53.904721" lon="-2.170266">
        <ele>144.77895</ele>
        <time>2025-06-01T12:35:53.000Z</time>
      </trkpt>
      <trkpt lat="53.904652" lon="-2.170043">
        <ele>144.760598</ele>
        <time>2025-06-01T12:35:55.000Z</time>
      </trkpt>
      <trkpt lat="53.904514" lon="-2.169503">
        <ele>144.717096</ele>
        <time>2025-06-01T12:35:59.000Z</time>
      </trkpt>
      <trkpt lat="53.904464" lon="-2.169352">
        <ele>144.703818</ele>
        <time>2025-06-01T12:36:00.000Z</time>
      </trkpt>
      <trkpt lat="53.90373" lon="-2.166842">
        <ele>144.316794</ele>
        <time>2025-06-01T12:36:18.000Z</time>
      </trkpt>
      <trkpt lat="53.903071" lon="-2.164722">
        <ele>143.373033</ele>
        <time>2025-06-01T12:36:34.000Z</time>
      </trkpt>
      <trkpt lat="53.902968" lon="-2.164527">
        <ele>143.143736</ele>
        <time>2025-06-01T12:36:36.000Z</time>
      </trkpt>
      <trkpt lat="53.902657" lon="-2.163916">
        <ele>142.4835</ele>
        <time>2025-06-01T12:36:41.000Z</time>
      </trkpt>
      <trkpt lat="53.90135" lon="-2.161621">
        <ele>140.930829</ele>
        <time>2025-06-01T12:37:02.000Z</time>
      </trkpt>
      <trkpt lat="53.899538" lon="-2.158572">
        <ele>143.646239</ele>
        <time>2025-06-01T12:37:30.000Z</time>
      </trkpt>
      <trkpt lat="53.899445" lon="-2.158404">
        <ele>144.089858</ele>
        <time>2025-06-01T12:37:32.000Z</time>
      </trkpt>
      <trkpt lat="53.898695" lon="-2.157178">
        <ele>147.550029</ele>
        <time>2025-06-01T12:37:44.000Z</time>
      </trkpt>
      <trkpt lat="53.898424" lon="-2.156702">
        <ele>148.871955</ele>
        <time>2025-06-01T12:37:48.000Z</time>
      </trkpt>
      <trkpt lat="53.898405" lon="-2.156685">
        <ele>148.917123</ele>
        <time>2025-06-01T12:37:48.000Z</time>
      </trkpt>
      <trkpt lat="53.898169" lon="-2.156235">
        <ele>149.533308</ele>
        <time>2025-06-01T12:37:52.000Z</time>
      </trkpt>
      <trkpt lat="53.897929" lon="-2.155597">
        <ele>149.916722</ele>
        <time>2025-06-01T12:37:57.000Z</time>
      </trkpt>
      <trkpt lat="53.897008" lon="-2.152995">
        <ele>151.079747</ele>
        <time>2025-06-01T12:38:17.000Z</time>
      </trkpt>
      <trkpt lat="53.896949" lon="-2.152604">
        <ele>151.151951</ele>
        <time>2025-06-01T12:38:20.000Z</time>
      </trkpt>
      <trkpt lat="53.896945" lon="-2.152572">
        <ele>151.157357</ele>
        <time>2025-06-01T12:38:20.000Z</time>
      </trkpt>
      <trkpt lat="53.89697" lon="-2.152217">
        <ele>151.223552</ele>
        <time>2025-06-01T12:38:22.000Z</time>
      </trkpt>
      <trkpt lat="53.897024" lon="-2.15204">
        <ele>151.259635</ele>
        <time>2025-06-01T12:38:23.000Z</time>
      </trkpt>
      <trkpt lat="53.897226" lon="-2.151697">
        <ele>151.344381</ele>
        <time>2025-06-01T12:38:26.000Z</time>
      </trkpt>
      <trkpt lat="53.897631" lon="-2.151409">
        <ele>151.097237</ele>
        <time>2025-06-01T12:38:31.000Z</time>
      </trkpt>
      <trkpt lat="53.89808" lon="-2.151173">
        <ele>150.250506</ele>
        <time>2025-06-01T12:38:36.000Z</time>
      </trkpt>
      <trkpt lat="53.898502" lon="-2.151017">
        <ele>149.492957</ele>
        <time>2025-06-01T12:38:41.000Z</time>
      </trkpt>
      <trkpt lat="53.898587" lon="-2.150974">
        <ele>149.340175</ele>
        <time>2025-06-01T12:38:42.000Z</time>
      </trkpt>
      <trkpt lat="53.898917" lon="-2.150854">
        <ele>148.759796</ele>
        <time>2025-06-01T12:38:46.000Z</time>
      </trkpt>
      <trkpt lat="53.899047" lon="-2.150823">
        <ele>148.516632</ele>
        <time>2025-06-01T12:38:47.000Z</time>
      </trkpt>
      <trkpt lat="53.899121" lon="-2.150794">
        <ele>148.371327</ele>
        <time>2025-06-01T12:38:48.000Z</time>
      </trkpt>
      <trkpt lat="53.899263" lon="-2.150772">
        <ele>148.123676</ele>
        <time>2025-06-01T12:38:50.000Z</time>
      </trkpt>
      <trkpt lat="53.899801" lon="-2.150811">
        <ele>146.922923</ele>
        <time>2025-06-01T12:38:56.000Z</time>
      </trkpt>
      <trkpt lat="53.90018" lon="-2.150895">
        <ele>146.089001</ele>
        <time>2025-06-01T12:39:00.000Z</time>
      </trkpt>
      <trkpt lat="53.901358" lon="-2.151129">
        <ele>143.675117</ele>
        <time>2025-06-01T12:39:13.000Z</time>
      </trkpt>
      <trkpt lat="53.901403" lon="-2.151145">
        <ele>143.60735</ele>
        <time>2025-06-01T12:39:14.000Z</time>
      </trkpt>
      <trkpt lat="53.902623" lon="-2.151568">
        <ele>141.534083</ele>
        <time>2025-06-01T12:39:28.000Z</time>
      </trkpt>
      <trkpt lat="53.902972" lon="-2.151694">
        <ele>141.145402</ele>
        <time>2025-06-01T12:39:32.000Z</time>
      </trkpt>
      <trkpt lat="53.903201" lon="-2.151722">
        <ele>140.99141</ele>
        <time>2025-06-01T12:39:35.000Z</time>
      </trkpt>
      <trkpt lat="53.903619" lon="-2.151532">
        <ele>140.702429</ele>
        <time>2025-06-01T12:39:40.000Z</time>
      </trkpt>
      <trkpt lat="53.903744" lon="-2.151391">
        <ele>140.595579</ele>
        <time>2025-06-01T12:39:42.000Z</time>
      </trkpt>
      <trkpt lat="53.90377" lon="-2.151372">
        <ele>140.577419</ele>
        <time>2025-06-01T12:39:42.000Z</time>
      </trkpt>
      <trkpt lat="53.903863" lon="-2.151281">
        <ele>140.510634</ele>
        <time>2025-06-01T12:39:43.000Z</time>
      </trkpt>
      <trkpt lat="53.903865" lon="-2.151276">
        <ele>140.49721</ele>
        <time>2025-06-01T12:39:43.000Z</time>
      </trkpt>
      <trkpt lat="53.903892" lon="-2.151257">
        <ele>140.483119</ele>
        <time>2025-06-01T12:39:43.000Z</time>
      </trkpt>
      <trkpt lat="53.904516" lon="-2.150464">
        <ele>139.96966</ele>
        <time>2025-06-01T12:39:52.000Z</time>
      </trkpt>
      <trkpt lat="53.904717" lon="-2.150286">
        <ele>139.824455</ele>
        <time>2025-06-01T12:39:55.000Z</time>
      </trkpt>
      <trkpt lat="53.905083" lon="-2.150182">
        <ele>139.59079</ele>
        <time>2025-06-01T12:39:59.000Z</time>
      </trkpt>
      <trkpt lat="53.905671" lon="-2.150023">
        <ele>139.230789</ele>
        <time>2025-06-01T12:40:06.000Z</time>
      </trkpt>
      <trkpt lat="53.905787" lon="-2.149992">
        <ele>139.159691</ele>
        <time>2025-06-01T12:40:07.000Z</time>
      </trkpt>
      <trkpt lat="53.906642" lon="-2.149537">
        <ele>138.151849</ele>
        <time>2025-06-01T12:40:17.000Z</time>
      </trkpt>
      <trkpt lat="53.906693" lon="-2.149508">
        <ele>138.078133</ele>
        <time>2025-06-01T12:40:18.000Z</time>
      </trkpt>
      <trkpt lat="53.907258" lon="-2.149244">
        <ele>137.261943</ele>
        <time>2025-06-01T12:40:25.000Z</time>
      </trkpt>
      <trkpt lat="53.907524" lon="-2.149106">
        <ele>136.869925</ele>
        <time>2025-06-01T12:40:28.000Z</time>
      </trkpt>
      <trkpt lat="53.907845" lon="-2.148922">
        <ele>136.444145</ele>
        <time>2025-06-01T12:40:32.000Z</time>
      </trkpt>
      <trkpt lat="53.908347" lon="-2.148769">
        <ele>136.105378</ele>
        <time>2025-06-01T12:40:38.000Z</time>
      </trkpt>
      <trkpt lat="53.908758" lon="-2.148689">
        <ele>135.837121</ele>
        <time>2025-06-01T12:40:43.000Z</time>
      </trkpt>
      <trkpt lat="53.909177" lon="-2.148561">
        <ele>135.552804</ele>
        <time>2025-06-01T12:40:48.000Z</time>
      </trkpt>
      <trkpt lat="53.910603" lon="-2.147989">
        <ele>135.94638</ele>
        <time>2025-06-01T12:41:04.000Z</time>
      </trkpt>
      <trkpt lat="53.911125" lon="-2.14778">
        <ele>136.269749</ele>
        <time>2025-06-01T12:41:10.000Z</time>
      </trkpt>
      <trkpt lat="53.911381" lon="-2.147685">
        <ele>136.399476</ele>
        <time>2025-06-01T12:41:13.000Z</time>
      </trkpt>
      <trkpt lat="53.912018" lon="-2.147422">
        <ele>136.452406</ele>
        <time>2025-06-01T12:41:20.000Z</time>
      </trkpt>
      <trkpt lat="53.912102" lon="-2.147399">
        <ele>136.459535</ele>
        <time>2025-06-01T12:41:21.000Z</time>
      </trkpt>
      <trkpt lat="53.912202" lon="-2.147384">
        <ele>136.46635</ele>
        <time>2025-06-01T12:41:22.000Z</time>
      </trkpt>
      <trkpt lat="53.912284" lon="-2.147362">
        <ele>136.473315</ele>
        <time>2025-06-01T12:41:23.000Z</time>
      </trkpt>
      <trkpt lat="53.912516" lon="-2.147302">
        <ele>136.492559</ele>
        <time>2025-06-01T12:41:26.000Z</time>
      </trkpt>
      <trkpt lat="53.913361" lon="-2.146877">
        <ele>136.299007</ele>
        <time>2025-06-01T12:41:36.000Z</time>
      </trkpt>
      <trkpt lat="53.914109" lon="-2.146414">
        <ele>135.669974</ele>
        <time>2025-06-01T12:41:45.000Z</time>
      </trkpt>
      <trkpt lat="53.914135" lon="-2.146392">
        <ele>135.63809</ele>
        <time>2025-06-01T12:41:45.000Z</time>
      </trkpt>
      <trkpt lat="53.914589" lon="-2.146097">
        <ele>135.261245</ele>
        <time>2025-06-01T12:41:50.000Z</time>
      </trkpt>
      <trkpt lat="53.914738" lon="-2.146007">
        <ele>135.131781</ele>
        <time>2025-06-01T12:41:52.000Z</time>
      </trkpt>
      <trkpt lat="53.915529" lon="-2.145636">
        <ele>134.547148</ele>
        <time>2025-06-01T12:42:01.000Z</time>
      </trkpt>
      <trkpt lat="53.91601" lon="-2.14565">
        <ele>134.218475</ele>
        <time>2025-06-01T12:42:06.000Z</time>
      </trkpt>
      <trkpt lat="53.916359" lon="-2.145734">
        <ele>133.962551</ele>
        <time>2025-06-01T12:42:10.000Z</time>
      </trkpt>
      <trkpt lat="53.916583" lon="-2.145708">
        <ele>133.885601</ele>
        <time>2025-06-01T12:42:12.000Z</time>
      </trkpt>
      <trkpt lat="53.916615" lon="-2.145702">
        <ele>133.919576</ele>
        <time>2025-06-01T12:42:12.000Z</time>
      </trkpt>
      <trkpt lat="53.916741" lon="-2.145647">
        <ele>134.014641</ele>
        <time>2025-06-01T12:42:13.000Z</time>
      </trkpt>
      <trkpt lat="53.916985" lon="-2.14565">
        <ele>134.200115</ele>
        <time>2025-06-01T12:42:16.000Z</time>
      </trkpt>
      <trkpt lat="53.917656" lon="-2.14566">
        <ele>134.697709</ele>
        <time>2025-06-01T12:42:23.000Z</time>
      </trkpt>
      <trkpt lat="53.917769" lon="-2.145649">
        <ele>134.793819</ele>
        <time>2025-06-01T12:42:24.000Z</time>
      </trkpt>
      <trkpt lat="53.918291" lon="-2.145454">
        <ele>135.186758</ele>
        <time>2025-06-01T12:42:30.000Z</time>
      </trkpt>
      <trkpt lat="53.918576" lon="-2.145332">
        <ele>135.548493</ele>
        <time>2025-06-01T12:42:33.000Z</time>
      </trkpt>
      <trkpt lat="53.918695" lon="-2.145369">
        <ele>135.707851</ele>
        <time>2025-06-01T12:42:34.000Z</time>
      </trkpt>
      <trkpt lat="53.918766" lon="-2.145403">
        <ele>135.791996</ele>
        <time>2025-06-01T12:42:35.000Z</time>
      </trkpt>
      <trkpt lat="53.918968" lon="-2.14551">
        <ele>136.05521</ele>
        <time>2025-06-01T12:42:37.000Z</time>
      </trkpt>
      <trkpt lat="53.919913" lon="-2.145248">
        <ele>137.225682</ele>
        <time>2025-06-01T12:42:48.000Z</time>
      </trkpt>
      <trkpt lat="53.921072" lon="-2.145001">
        <ele>137.183856</ele>
        <time>2025-06-01T12:43:01.000Z</time>
      </trkpt>
      <trkpt lat="53.921351" lon="-2.145103">
        <ele>137.118609</ele>
        <time>2025-06-01T12:43:04.000Z</time>
      </trkpt>
      <trkpt lat="53.921493" lon="-2.14517">
        <ele>137.080946</ele>
        <time>2025-06-01T12:43:06.000Z</time>
      </trkpt>
      <trkpt lat="53.921852" lon="-2.145387">
        <ele>137.043291</ele>
        <time>2025-06-01T12:43:10.000Z</time>
      </trkpt>
      <trkpt lat="53.922547" lon="-2.145773">
        <ele>138.26746</ele>
        <time>2025-06-01T12:43:18.000Z</time>
      </trkpt>
      <trkpt lat="53.922594" lon="-2.145798">
        <ele>138.356892</ele>
        <time>2025-06-01T12:43:19.000Z</time>
      </trkpt>
      <trkpt lat="53.92274" lon="-2.145887">
        <ele>138.593052</ele>
        <time>2025-06-01T12:43:21.000Z</time>
      </trkpt>
      <trkpt lat="53.92288" lon="-2.146067">
        <ele>138.898406</ele>
        <time>2025-06-01T12:43:23.000Z</time>
      </trkpt>
      <trkpt lat="53.922982" lon="-2.146215">
        <ele>139.112299</ele>
        <time>2025-06-01T12:43:24.000Z</time>
      </trkpt>
      <trkpt lat="53.923152" lon="-2.146609">
        <ele>139.602577</ele>
        <time>2025-06-01T12:43:27.000Z</time>
      </trkpt>
      <trkpt lat="53.92327" lon="-2.146775">
        <ele>139.850101</ele>
        <time>2025-06-01T12:43:29.000Z</time>
      </trkpt>
      <trkpt lat="53.923472" lon="-2.146969">
        <ele>140.691644</ele>
        <time>2025-06-01T12:43:32.000Z</time>
      </trkpt>
      <trkpt lat="53.923992" lon="-2.147178">
        <ele>143.063002</ele>
        <time>2025-06-01T12:43:38.000Z</time>
      </trkpt>
      <trkpt lat="53.92419" lon="-2.14744">
        <ele>144.244768</ele>
        <time>2025-06-01T12:43:41.000Z</time>
      </trkpt>
      <trkpt lat="53.924493" lon="-2.148076">
        <ele>146.456674</ele>
        <time>2025-06-01T12:43:46.000Z</time>
      </trkpt>
      <trkpt lat="53.924665" lon="-2.148326">
        <ele>147.457887</ele>
        <time>2025-06-01T12:43:49.000Z</time>
      </trkpt>
      <trkpt lat="53.924843" lon="-2.148548">
        <ele>148.319982</ele>
        <time>2025-06-01T12:43:51.000Z</time>
      </trkpt>
      <trkpt lat="53.925016" lon="-2.148677">
        <ele>148.709948</ele>
        <time>2025-06-01T12:43:53.000Z</time>
      </trkpt>
      <trkpt lat="53.925585" lon="-2.148958">
        <ele>150.014115</ele>
        <time>2025-06-01T12:44:00.000Z</time>
      </trkpt>
      <trkpt lat="53.926057" lon="-2.149349">
        <ele>151.125295</ele>
        <time>2025-06-01T12:44:06.000Z</time>
      </trkpt>
      <trkpt lat="53.926233" lon="-2.149446">
        <ele>151.522787</ele>
        <time>2025-06-01T12:44:08.000Z</time>
      </trkpt>
      <trkpt lat="53.926496" lon="-2.14934">
        <ele>152.075085</ele>
        <time>2025-06-01T12:44:11.000Z</time>
      </trkpt>
      <trkpt lat="53.926703" lon="-2.149176">
        <ele>152.151762</ele>
        <time>2025-06-01T12:44:14.000Z</time>
      </trkpt>
      <trkpt lat="53.927417" lon="-2.148468">
        <ele>152.42367</ele>
        <time>2025-06-01T12:44:23.000Z</time>
      </trkpt>
      <trkpt lat="53.928243" lon="-2.147406">
        <ele>152.571543</ele>
        <time>2025-06-01T12:44:35.000Z</time>
      </trkpt>
      <trkpt lat="53.928985" lon="-2.146344">
        <ele>152.276527</ele>
        <time>2025-06-01T12:44:46.000Z</time>
      </trkpt>
      <trkpt lat="53.929554" lon="-2.145588">
        <ele>152.72508</ele>
        <time>2025-06-01T12:44:54.000Z</time>
      </trkpt>
      <trkpt lat="53.929649" lon="-2.145441">
        <ele>153.135916</ele>
        <time>2025-06-01T12:44:55.000Z</time>
      </trkpt>
      <trkpt lat="53.92981" lon="-2.145248">
        <ele>153.702614</ele>
        <time>2025-06-01T12:44:57.000Z</time>
      </trkpt>
      <trkpt lat="53.930057" lon="-2.144992">
        <ele>154.564558</ele>
        <time>2025-06-01T12:45:00.000Z</time>
      </trkpt>
      <trkpt lat="53.930305" lon="-2.144845">
        <ele>155.336121</ele>
        <time>2025-06-01T12:45:03.000Z</time>
      </trkpt>
      <trkpt lat="53.931156" lon="-2.144851">
        <ele>158.088415</ele>
        <time>2025-06-01T12:45:12.000Z</time>
      </trkpt>
      <trkpt lat="53.931386" lon="-2.144809">
        <ele>159.245092</ele>
        <time>2025-06-01T12:45:15.000Z</time>
      </trkpt>
      <trkpt lat="53.9318" lon="-2.144607">
        <ele>161.253554</ele>
        <time>2025-06-01T12:45:20.000Z</time>
      </trkpt>
      <trkpt lat="53.931847" lon="-2.145169">
        <ele>162.841741</ele>
        <time>2025-06-01T12:45:24.000Z</time>
      </trkpt>
      <trkpt lat="53.931859" lon="-2.145374">
        <ele>163.42197</ele>
        <time>2025-06-01T12:45:25.000Z</time>
      </trkpt>
      <trkpt lat="53.931876" lon="-2.145998">
        <ele>165.147241</ele>
        <time>2025-06-01T12:45:29.000Z</time>
      </trkpt>
      <trkpt lat="53.931937" lon="-2.14741">
        <ele>164.960973</ele>
        <time>2025-06-01T12:45:38.000Z</time>
      </trkpt>
      <trkpt lat="53.931865" lon="-2.147897">
        <ele>164.526427</ele>
        <time>2025-06-01T12:45:41.000Z</time>
      </trkpt>
      <trkpt lat="53.931721" lon="-2.148511">
        <ele>163.938194</ele>
        <time>2025-06-01T12:45:45.000Z</time>
      </trkpt>
      <trkpt lat="53.931611" lon="-2.148809">
        <ele>163.648474</ele>
        <time>2025-06-01T12:45:47.000Z</time>
      </trkpt>
      <trkpt lat="53.931414" lon="-2.149278">
        <ele>162.902722</ele>
        <time>2025-06-01T12:45:51.000Z</time>
      </trkpt>
      <trkpt lat="53.931165" lon="-2.149879">
        <ele>161.224761</ele>
        <time>2025-06-01T12:45:56.000Z</time>
      </trkpt>
      <trkpt lat="53.930956" lon="-2.150422">
        <ele>159.753936</ele>
        <time>2025-06-01T12:46:00.000Z</time>
      </trkpt>
      <trkpt lat="53.930761" lon="-2.15098">
        <ele>158.322281</ele>
        <time>2025-06-01T12:46:04.000Z</time>
      </trkpt>
      <trkpt lat="53.930734" lon="-2.151213">
        <ele>157.759771</ele>
        <time>2025-06-01T12:46:06.000Z</time>
      </trkpt>
      <trkpt lat="53.930663" lon="-2.151652">
        <ele>156.762183</ele>
        <time>2025-06-01T12:46:09.000Z</time>
      </trkpt>
      <trkpt lat="53.930673" lon="-2.152269">
        <ele>155.894754</ele>
        <time>2025-06-01T12:46:13.000Z</time>
      </trkpt>
      <trkpt lat="53.930721" lon="-2.152696">
        <ele>155.42966</ele>
        <time>2025-06-01T12:46:16.000Z</time>
      </trkpt>
      <trkpt lat="53.930768" lon="-2.153016">
        <ele>155.075966</ele>
        <time>2025-06-01T12:46:18.000Z</time>
      </trkpt>
      <trkpt lat="53.930823" lon="-2.153308">
        <ele>154.757146</ele>
        <time>2025-06-01T12:46:20.000Z</time>
      </trkpt>
      <trkpt lat="53.931122" lon="-2.154571">
        <ele>153.321472</ele>
        <time>2025-06-01T12:46:29.000Z</time>
      </trkpt>
      <trkpt lat="53.931238" lon="-2.155168">
        <ele>152.667586</ele>
        <time>2025-06-01T12:46:33.000Z</time>
      </trkpt>
      <trkpt lat="53.931288" lon="-2.155867">
        <ele>151.938707</ele>
        <time>2025-06-01T12:46:38.000Z</time>
      </trkpt>
      <trkpt lat="53.931289" lon="-2.156199">
        <ele>151.592084</ele>
        <time>2025-06-01T12:46:40.000Z</time>
      </trkpt>
      <trkpt lat="53.931287" lon="-2.156588">
        <ele>151.205154</ele>
        <time>2025-06-01T12:46:43.000Z</time>
      </trkpt>
      <trkpt lat="53.931188" lon="-2.157724">
        <ele>150.008751</ele>
        <time>2025-06-01T12:46:51.000Z</time>
      </trkpt>
      <trkpt lat="53.930723" lon="-2.162904">
        <ele>148.071312</ele>
        <time>2025-06-01T12:47:25.000Z</time>
      </trkpt>
      <trkpt lat="53.930722" lon="-2.163012">
        <ele>148.065185</ele>
        <time>2025-06-01T12:47:26.000Z</time>
      </trkpt>
      <trkpt lat="53.930691" lon="-2.163238">
        <ele>148.052533</ele>
        <time>2025-06-01T12:47:28.000Z</time>
      </trkpt>
      <trkpt lat="53.930683" lon="-2.163327">
        <ele>148.047776</ele>
        <time>2025-06-01T12:47:29.000Z</time>
      </trkpt>
      <trkpt lat="53.93066" lon="-2.163514">
        <ele>148.037276</ele>
        <time>2025-06-01T12:47:30.000Z</time>
      </trkpt>
      <trkpt lat="53.930623" lon="-2.163841">
        <ele>148.120737</ele>
        <time>2025-06-01T12:47:32.000Z</time>
      </trkpt>
      <trkpt lat="53.930596" lon="-2.16408">
        <ele>148.65936</ele>
        <time>2025-06-01T12:47:34.000Z</time>
      </trkpt>
      <trkpt lat="53.930383" lon="-2.165902">
        <ele>152.857257</ele>
        <time>2025-06-01T12:47:46.000Z</time>
      </trkpt>
      <trkpt lat="53.930315" lon="-2.166326">
        <ele>153.850091</ele>
        <time>2025-06-01T12:47:49.000Z</time>
      </trkpt>
      <trkpt lat="53.930307" lon="-2.166398">
        <ele>154.002483</ele>
        <time>2025-06-01T12:47:49.000Z</time>
      </trkpt>
      <trkpt lat="53.930153" lon="-2.16721">
        <ele>155.407658</ele>
        <time>2025-06-01T12:47:55.000Z</time>
      </trkpt>
      <trkpt lat="53.929889" lon="-2.168175">
        <ele>156.621457</ele>
        <time>2025-06-01T12:48:02.000Z</time>
      </trkpt>
      <trkpt lat="53.929448" lon="-2.169238">
        <ele>158.093741</ele>
        <time>2025-06-01T12:48:11.000Z</time>
      </trkpt>
      <trkpt lat="53.929244" lon="-2.169619">
        <ele>158.192938</ele>
        <time>2025-06-01T12:48:14.000Z</time>
      </trkpt>
      <trkpt lat="53.928945" lon="-2.170087">
        <ele>157.8329</ele>
        <time>2025-06-01T12:48:19.000Z</time>
      </trkpt>
      <trkpt lat="53.928458" lon="-2.170623">
        <ele>157.32466</ele>
        <time>2025-06-01T12:48:25.000Z</time>
      </trkpt>
      <trkpt lat="53.926691" lon="-2.172169">
        <ele>154.562418</ele>
        <time>2025-06-01T12:48:47.000Z</time>
      </trkpt>
      <trkpt lat="53.925656" lon="-2.173082">
        <ele>152.674614</ele>
        <time>2025-06-01T12:49:00.000Z</time>
      </trkpt>
      <trkpt lat="53.925486" lon="-2.1733">
        <ele>152.331801</ele>
        <time>2025-06-01T12:49:02.000Z</time>
      </trkpt>
      <trkpt lat="53.925321" lon="-2.173574">
        <ele>151.967497</ele>
        <time>2025-06-01T12:49:05.000Z</time>
      </trkpt>
      <trkpt lat="53.924504" lon="-2.17515">
        <ele>152.101792</ele>
        <time>2025-06-01T12:49:19.000Z</time>
      </trkpt>
      <trkpt lat="53.923994" lon="-2.176109">
        <ele>153.581003</ele>
        <time>2025-06-01T12:49:27.000Z</time>
      </trkpt>
      <trkpt lat="53.923498" lon="-2.177051">
        <ele>154.297904</ele>
        <time>2025-06-01T12:49:35.000Z</time>
      </trkpt>
      <trkpt lat="53.923361" lon="-2.177429">
        <ele>154.152555</ele>
        <time>2025-06-01T12:49:38.000Z</time>
      </trkpt>
      <trkpt lat="53.923288" lon="-2.177692">
        <ele>154.061731</ele>
        <time>2025-06-01T12:49:40.000Z</time>
      </trkpt>
      <trkpt lat="53.923227" lon="-2.177963">
        <ele>153.966246</ele>
        <time>2025-06-01T12:49:42.000Z</time>
      </trkpt>
      <trkpt lat="53.923203" lon="-2.178146">
        <ele>153.907283</ele>
        <time>2025-06-01T12:49:43.000Z</time>
      </trkpt>
      <trkpt lat="53.923048" lon="-2.179076">
        <ele>153.596377</ele>
        <time>2025-06-01T12:49:49.000Z</time>
      </trkpt>
      <trkpt lat="53.922869" lon="-2.180062">
        <ele>151.949009</ele>
        <time>2025-06-01T12:49:56.000Z</time>
      </trkpt>
      <trkpt lat="53.922819" lon="-2.180228">
        <ele>151.505135</ele>
        <time>2025-06-01T12:49:57.000Z</time>
      </trkpt>
      <trkpt lat="53.922677" lon="-2.180914">
        <ele>149.814053</ele>
        <time>2025-06-01T12:50:02.000Z</time>
      </trkpt>
      <trkpt lat="53.922634" lon="-2.181126">
        <ele>149.324972</ele>
        <time>2025-06-01T12:50:03.000Z</time>
      </trkpt>
      <trkpt lat="53.922545" lon="-2.181543">
        <ele>148.310798</ele>
        <time>2025-06-01T12:50:06.000Z</time>
      </trkpt>
      <trkpt lat="53.922418" lon="-2.182114">
        <ele>146.887135</ele>
        <time>2025-06-01T12:50:10.000Z</time>
      </trkpt>
      <trkpt lat="53.922305" lon="-2.182539">
        <ele>146.368888</ele>
        <time>2025-06-01T12:50:13.000Z</time>
      </trkpt>
      <trkpt lat="53.922231" lon="-2.182882">
        <ele>146.284121</ele>
        <time>2025-06-01T12:50:15.000Z</time>
      </trkpt>
      <trkpt lat="53.922046" lon="-2.183338">
        <ele>146.15535</ele>
        <time>2025-06-01T12:50:19.000Z</time>
      </trkpt>
      <trkpt lat="53.921911" lon="-2.183555">
        <ele>146.081136</ele>
        <time>2025-06-01T12:50:21.000Z</time>
      </trkpt>
      <trkpt lat="53.921774" lon="-2.183725">
        <ele>146.014778</ele>
        <time>2025-06-01T12:50:23.000Z</time>
      </trkpt>
      <trkpt lat="53.921219" lon="-2.184411">
        <ele>145.746059</ele>
        <time>2025-06-01T12:50:31.000Z</time>
      </trkpt>
      <trkpt lat="53.920744" lon="-2.185257">
        <ele>147.496005</ele>
        <time>2025-06-01T12:50:39.000Z</time>
      </trkpt>
      <trkpt lat="53.920594" lon="-2.185543">
        <ele>148.113172</ele>
        <time>2025-06-01T12:50:42.000Z</time>
      </trkpt>
      <trkpt lat="53.920168" lon="-2.186109">
        <ele>149.630002</ele>
        <time>2025-06-01T12:50:48.000Z</time>
      </trkpt>
      <trkpt lat="53.920022" lon="-2.186256">
        <ele>150.116008</ele>
        <time>2025-06-01T12:50:50.000Z</time>
      </trkpt>
      <trkpt lat="53.91961" lon="-2.186926">
        <ele>151.838656</ele>
        <time>2025-06-01T12:50:56.000Z</time>
      </trkpt>
      <trkpt lat="53.919553" lon="-2.187029">
        <ele>152.091407</ele>
        <time>2025-06-01T12:50:57.000Z</time>
      </trkpt>
      <trkpt lat="53.919422" lon="-2.187281">
        <ele>152.741138</ele>
        <time>2025-06-01T12:50:59.000Z</time>
      </trkpt>
      <trkpt lat="53.919324" lon="-2.187485">
        <ele>153.222133</ele>
        <time>2025-06-01T12:51:01.000Z</time>
      </trkpt>
      <trkpt lat="53.919286" lon="-2.187548">
        <ele>153.376167</ele>
        <time>2025-06-01T12:51:02.000Z</time>
      </trkpt>
      <trkpt lat="53.919149" lon="-2.18779">
        <ele>154.019619</ele>
        <time>2025-06-01T12:51:04.000Z</time>
      </trkpt>
      <trkpt lat="53.919021" lon="-2.188048">
        <ele>154.648349</ele>
        <time>2025-06-01T12:51:06.000Z</time>
      </trkpt>
      <trkpt lat="53.918886" lon="-2.188308">
        <ele>155.301579</ele>
        <time>2025-06-01T12:51:08.000Z</time>
      </trkpt>
      <trkpt lat="53.918698" lon="-2.188692">
        <ele>156.241985</ele>
        <time>2025-06-01T12:51:11.000Z</time>
      </trkpt>
      <trkpt lat="53.918359" lon="-2.188607">
        <ele>157.215557</ele>
        <time>2025-06-01T12:51:15.000Z</time>
      </trkpt>
      <trkpt lat="53.918156" lon="-2.188491">
        <ele>157.831869</ele>
        <time>2025-06-01T12:51:17.000Z</time>
      </trkpt>
      <trkpt lat="53.918009" lon="-2.188346">
        <ele>158.308768</ele>
        <time>2025-06-01T12:51:19.000Z</time>
      </trkpt>
      <trkpt lat="53.917788" lon="-2.188033">
        <ele>159.16121</ele>
        <time>2025-06-01T12:51:22.000Z</time>
      </trkpt>
      <trkpt lat="53.917456" lon="-2.187496">
        <ele>160.447339</ele>
        <time>2025-06-01T12:51:27.000Z</time>
      </trkpt>
      <trkpt lat="53.917213" lon="-2.18705">
        <ele>161.492198</ele>
        <time>2025-06-01T12:51:31.000Z</time>
      </trkpt>
      <trkpt lat="53.917173" lon="-2.186992">
        <ele>161.620295</ele>
        <time>2025-06-01T12:51:32.000Z</time>
      </trkpt>
      <trkpt lat="53.91712" lon="-2.186902">
        <ele>161.846925</ele>
        <time>2025-06-01T12:51:33.000Z</time>
      </trkpt>
      <trkpt lat="53.9169" lon="-2.186493">
        <ele>162.787385</ele>
        <time>2025-06-01T12:51:37.000Z</time>
      </trkpt>
      <trkpt lat="53.916718" lon="-2.186166">
        <ele>163.556637</ele>
        <time>2025-06-01T12:51:40.000Z</time>
      </trkpt>
      <trkpt lat="53.916432" lon="-2.185634">
        <ele>164.806549</ele>
        <time>2025-06-01T12:51:45.000Z</time>
      </trkpt>
      <trkpt lat="53.916055" lon="-2.185145">
        <ele>166.198851</ele>
        <time>2025-06-01T12:51:50.000Z</time>
      </trkpt>
      <trkpt lat="53.915846" lon="-2.18496">
        <ele>166.874637</ele>
        <time>2025-06-01T12:51:53.000Z</time>
      </trkpt>
      <trkpt lat="53.915617" lon="-2.184753">
        <ele>167.225808</ele>
        <time>2025-06-01T12:51:56.000Z</time>
      </trkpt>
      <trkpt lat="53.915459" lon="-2.184599">
        <ele>167.466437</ele>
        <time>2025-06-01T12:51:58.000Z</time>
      </trkpt>
      <trkpt lat="53.915308" lon="-2.184437">
        <ele>167.711347</ele>
        <time>2025-06-01T12:52:00.000Z</time>
      </trkpt>
      <trkpt lat="53.915109" lon="-2.184238">
        <ele>168.030006</ele>
        <time>2025-06-01T12:52:03.000Z</time>
      </trkpt>
      <trkpt lat="53.914901" lon="-2.18403">
        <ele>168.342969</ele>
        <time>2025-06-01T12:52:06.000Z</time>
      </trkpt>
      <trkpt lat="53.914385" lon="-2.183559">
        <ele>169.121553</ele>
        <time>2025-06-01T12:52:13.000Z</time>
      </trkpt>
      <trkpt lat="53.914091" lon="-2.183276">
        <ele>169.464891272</ele>
        <time>2025-06-01T12:52:17.000Z</time>
      </trkpt>
      <trkpt lat="53.913782" lon="-2.18298">
        <ele>169.825323606</ele>
        <time>2025-06-01T12:52:21.000Z</time>
      </trkpt>
      <trkpt lat="53.913546" lon="-2.182747">
        <ele>170.102666538</ele>
        <time>2025-06-01T12:52:24.000Z</time>
      </trkpt>
      <trkpt lat="53.913478" lon="-2.182681">
        <ele>170.182239562</ele>
        <time>2025-06-01T12:52:25.000Z</time>
      </trkpt>
      <trkpt lat="53.913391" lon="-2.182577">
        <ele>170.290333332</ele>
        <time>2025-06-01T12:52:26.000Z</time>
      </trkpt>
      <trkpt lat="53.913339" lon="-2.182524">
        <ele>170.351948532</ele>
        <time>2025-06-01T12:52:27.000Z</time>
      </trkpt>
      <trkpt lat="53.913103" lon="-2.182286">
        <ele>170.630808225</ele>
        <time>2025-06-01T12:52:30.000Z</time>
      </trkpt>
      <trkpt lat="53.912433" lon="-2.181541">
        <ele>171.444454857</ele>
        <time>2025-06-01T12:52:39.000Z</time>
      </trkpt>
    </trkseg>
  </trk>
</gpx>

<!--
Performance optimized by W3 Total Cache. Learn more: https://www.boldgrid.com/w3-total-cache/?utm_source=w3tc&utm_medium=footer_comment&utm_campaign=free_plugin

Page Caching using Disk: Enhanced{w3tc_pagecache_reject_reason} 

Served from: www.aquabike.world @ 2026-05-10 17:34:48 by W3 Total Cache
-->